createdAt,value
2019-02-09T00:02:27.794Z,12.40
2019-02-09T00:04:58.972Z,12.40
2019-02-09T00:07:30.418Z,12.40
2019-02-09T00:10:01.779Z,12.40
2019-02-09T00:12:34.137Z,12.50
2019-02-09T00:15:06.057Z,12.60
2019-02-09T00:17:36.874Z,12.60
2019-02-09T00:20:08.260Z,12.50
2019-02-09T00:22:39.622Z,12.50
2019-02-09T00:25:11.256Z,12.50
2019-02-09T00:27:42.333Z,12.50
2019-02-09T00:30:13.786Z,12.40
2019-02-09T00:32:44.898Z,12.40
2019-02-09T00:35:23.835Z,12.40
2019-02-09T00:37:55.453Z,12.40
2019-02-09T00:40:26.757Z,12.30
2019-02-09T00:42:58.010Z,12.30
2019-02-09T00:45:29.345Z,12.30
2019-02-09T00:48:00.687Z,12.30
2019-02-09T00:50:31.739Z,12.20
2019-02-09T00:53:03.162Z,12.20
2019-02-09T00:55:34.023Z,12.10
2019-02-09T00:58:05.259Z,12.20
2019-02-09T01:00:36.093Z,12.10
2019-02-09T01:03:07.186Z,12.10
2019-02-09T01:05:40.915Z,12.10
2019-02-09T01:08:12.160Z,12.20
2019-02-09T01:10:43.370Z,12.10
2019-02-09T01:13:14.864Z,12.10
2019-02-09T01:15:45.816Z,12.10
2019-02-09T01:18:18.373Z,12.20
2019-02-09T01:20:49.557Z,12.30
2019-02-09T01:23:20.774Z,12.00
2019-02-09T01:25:52.204Z,12.00
2019-02-09T01:28:23.518Z,12.00
2019-02-09T01:30:54.764Z,12.00
2019-02-09T01:33:26.018Z,12.00
2019-02-09T01:35:57.127Z,12.00
2019-02-09T01:38:28.648Z,12.00
2019-02-09T01:40:59.810Z,12.00
2019-02-09T01:43:30.986Z,12.00
2019-02-09T01:46:02.119Z,12.10
2019-02-09T01:48:33.913Z,12.10
2019-02-09T01:51:04.883Z,12.10
2019-02-09T01:53:36.136Z,12.00
2019-02-09T01:56:07.321Z,12.00
2019-02-09T01:58:39.110Z,12.00
2019-02-09T02:01:10.401Z,12.00
2019-02-09T02:03:41.128Z,12.00
2019-02-09T02:06:12.276Z,12.10
2019-02-09T02:08:43.786Z,12.20
2019-02-09T02:11:14.885Z,12.20
2019-02-09T02:13:46.034Z,12.20
2019-02-09T02:16:17.120Z,12.30
2019-02-09T02:18:51.074Z,12.30
2019-02-09T02:21:27.801Z,12.20
2019-02-09T02:24:02.660Z,12.20
2019-02-09T02:26:34.263Z,12.20
2019-02-09T02:29:05.435Z,12.20
2019-02-09T02:31:36.507Z,12.30
2019-02-09T02:34:07.663Z,12.20
2019-02-09T02:36:38.792Z,12.20
2019-02-09T02:39:11.736Z,12.20
2019-02-09T02:41:42.708Z,12.20
2019-02-09T02:44:13.890Z,12.20
2019-02-09T02:46:44.967Z,12.10
2019-02-09T02:49:16.379Z,12.10
2019-02-09T02:51:47.620Z,12.10
2019-02-09T02:54:18.777Z,12.10
2019-02-09T02:56:49.931Z,12.00
2019-02-09T02:59:20.958Z,12.10
2019-02-09T03:01:51.897Z,12.00
2019-02-09T03:04:23.244Z,12.00
2019-02-09T03:06:54.359Z,12.10
2019-02-09T03:09:25.447Z,12.10
2019-02-09T03:11:56.468Z,12.00
2019-02-09T03:14:27.684Z,12.00
2019-02-09T03:16:59.312Z,12.10
2019-02-09T03:19:30.613Z,12.10
2019-02-09T03:22:01.504Z,12.00
2019-02-09T03:24:35.790Z,12.00
2019-02-09T03:27:07.078Z,12.20
2019-02-09T03:29:37.878Z,12.10
2019-02-09T03:32:11.017Z,12.10
2019-02-09T03:34:41.191Z,12.10
2019-02-09T03:37:12.358Z,12.10
2019-02-09T03:39:43.945Z,12.10
2019-02-09T03:42:15.119Z,12.20
2019-02-09T03:44:46.241Z,12.30
2019-02-09T03:47:19.095Z,12.20
2019-02-09T03:49:50.193Z,12.00
2019-02-09T03:52:21.140Z,11.90
2019-02-09T03:54:52.565Z,11.90
2019-02-09T03:57:24.132Z,12.00
2019-02-09T04:00:15.514Z,12.10
2019-02-09T04:02:46.508Z,12.10
2019-02-09T04:05:18.120Z,12.10
2019-02-09T04:07:49.203Z,11.90
2019-02-09T04:10:21.634Z,11.90
2019-02-09T04:12:52.789Z,11.80
2019-02-09T04:15:24.706Z,11.80
2019-02-09T04:17:57.038Z,11.80
2019-02-09T04:20:28.399Z,11.80
2019-02-09T04:22:59.243Z,12.00
2019-02-09T04:25:30.295Z,12.10
2019-02-09T04:28:01.258Z,12.00
2019-02-09T04:30:32.927Z,12.00
2019-02-09T04:33:04.138Z,11.90
2019-02-09T04:35:35.172Z,11.90
2019-02-09T04:38:06.291Z,12.00
2019-02-09T04:40:37.087Z,12.00
2019-02-09T04:43:08.106Z,11.90
2019-02-09T04:45:38.863Z,11.90
2019-02-09T04:48:09.840Z,11.90
2019-02-09T04:50:47.731Z,11.90
2019-02-09T04:53:19.098Z,11.80
2019-02-09T04:55:50.267Z,11.70
2019-02-09T04:58:21.321Z,11.70
2019-02-09T05:00:52.525Z,11.60
2019-02-09T05:03:23.776Z,11.70
2019-02-09T05:05:54.974Z,11.70
2019-02-09T05:08:25.981Z,11.60
2019-02-09T05:10:56.962Z,11.60
2019-02-09T05:13:27.868Z,11.70
2019-02-09T05:15:58.936Z,11.70
2019-02-09T05:18:29.940Z,11.70
2019-02-09T05:21:07.301Z,11.70
2019-02-09T05:23:38.342Z,11.70
2019-02-09T05:26:13.479Z,11.70
2019-02-09T05:29:27.410Z,11.70
2019-02-09T05:31:58.505Z,11.70
2019-02-09T05:34:29.416Z,11.70
2019-02-09T05:37:00.654Z,11.70
2019-02-09T05:39:31.598Z,11.60
2019-02-09T05:42:02.765Z,11.60
2019-02-09T05:44:34.938Z,11.60
2019-02-09T05:47:06.117Z,11.60
2019-02-09T05:49:37.185Z,11.60
2019-02-09T05:52:08.287Z,11.70
2019-02-09T05:54:39.323Z,11.70
2019-02-09T05:57:10.341Z,11.70
2019-02-09T05:59:40.976Z,11.70
2019-02-09T06:02:12.147Z,11.70
2019-02-09T06:04:43.134Z,11.70
2019-02-09T06:07:15.450Z,11.70
2019-02-09T06:09:46.543Z,11.70
2019-02-09T06:12:17.712Z,11.70
2019-02-09T06:14:56.109Z,11.70
2019-02-09T06:17:27.395Z,11.70
2019-02-09T06:19:58.759Z,11.60
2019-02-09T06:22:29.931Z,11.70
2019-02-09T06:25:00.874Z,11.60
2019-02-09T06:27:32.053Z,11.70
2019-02-09T06:30:03.580Z,11.80
2019-02-09T06:32:34.848Z,11.90
2019-02-09T06:35:06.487Z,11.80
2019-02-09T06:37:38.979Z,11.80
2019-02-09T06:40:11.516Z,11.90
2019-02-09T06:42:42.381Z,11.90
2019-02-09T06:45:15.736Z,12.00
2019-02-09T06:47:46.958Z,12.10
2019-02-09T06:50:20.267Z,12.10
2019-02-09T06:52:51.386Z,12.00
2019-02-09T06:55:22.368Z,11.90
2019-02-09T06:57:56.502Z,11.90
2019-02-09T07:00:27.637Z,11.80
2019-02-09T07:02:58.840Z,11.80
2019-02-09T07:05:29.867Z,11.90
2019-02-09T07:08:00.976Z,11.90
2019-02-09T07:10:32.190Z,12.00
2019-02-09T07:13:03.332Z,12.00
2019-02-09T07:15:35.431Z,12.00
2019-02-09T07:18:06.839Z,12.10
2019-02-09T07:20:39.764Z,12.30
2019-02-09T07:23:11.228Z,12.30
2019-02-09T07:25:42.080Z,12.30
2019-02-09T07:28:13.695Z,12.50
2019-02-09T07:30:45.327Z,12.50
2019-02-09T07:33:17.090Z,12.50
2019-02-09T07:35:48.264Z,12.50
2019-02-09T07:38:19.943Z,12.50
2019-02-09T07:40:51.268Z,12.40
2019-02-09T07:43:23.057Z,12.60
2019-02-09T07:45:54.269Z,12.50
2019-02-09T07:48:25.525Z,12.50
2019-02-09T07:50:56.863Z,12.50
2019-02-09T07:53:27.872Z,12.60
2019-02-09T07:55:59.058Z,12.70
2019-02-09T07:58:30.508Z,12.80
2019-02-09T08:01:02.994Z,12.90
2019-02-09T08:03:35.552Z,12.90
2019-02-09T08:06:07.140Z,13.00
2019-02-09T08:08:38.194Z,13.20
2019-02-09T08:11:10.004Z,13.30
2019-02-09T08:13:41.903Z,13.30
2019-02-09T08:16:13.355Z,13.20
2019-02-09T08:18:44.306Z,13.30
2019-02-09T08:21:15.559Z,13.40
2019-02-09T08:23:47.183Z,13.30
2019-02-09T08:26:18.625Z,13.40
2019-02-09T08:28:53.895Z,13.50
2019-02-09T08:31:25.114Z,13.50
2019-02-09T08:33:56.276Z,13.60
2019-02-09T08:36:28.778Z,13.50
2019-02-09T08:39:00.360Z,13.40
2019-02-09T08:41:31.494Z,13.50
2019-02-09T08:44:02.811Z,13.70
2019-02-09T08:46:33.868Z,14.00
2019-02-09T08:49:04.968Z,14.40
2019-02-09T08:51:35.824Z,14.50
2019-02-09T08:54:06.966Z,14.10
2019-02-09T08:56:37.596Z,14.10
2019-02-09T08:59:08.862Z,14.40
2019-02-09T09:01:39.477Z,14.70
2019-02-09T09:04:10.705Z,14.90
2019-02-09T09:06:41.826Z,14.90
2019-02-09T09:09:13.337Z,15.00
2019-02-09T09:11:44.098Z,15.10
2019-02-09T09:14:15.232Z,15.20
2019-02-09T09:16:46.512Z,15.10
2019-02-09T09:19:17.754Z,15.10
2019-02-09T09:21:48.870Z,15.00
2019-02-09T09:24:20.076Z,15.10
2019-02-09T09:26:51.229Z,15.10
2019-02-09T09:29:22.538Z,14.90
2019-02-09T09:31:53.447Z,14.80
2019-02-09T09:34:24.746Z,14.80
2019-02-09T09:36:56.037Z,14.80
2019-02-09T09:39:27.337Z,14.90
2019-02-09T09:41:58.565Z,14.70
2019-02-09T09:44:29.810Z,14.70
2019-02-09T09:47:00.811Z,15.00
2019-02-09T09:49:32.127Z,15.00
2019-02-09T09:52:03.469Z,14.80
2019-02-09T09:54:34.787Z,14.90
2019-02-09T09:57:05.940Z,15.00
2019-02-09T09:59:37.345Z,14.80
2019-02-09T10:02:08.623Z,14.80
2019-02-09T10:04:40.013Z,14.80
2019-02-09T10:07:13.988Z,14.90
2019-02-09T10:09:45.485Z,15.00
2019-02-09T10:12:16.989Z,15.00
2019-02-09T10:14:48.090Z,15.10
2019-02-09T10:17:19.183Z,15.10
2019-02-09T10:19:50.346Z,15.00
2019-02-09T10:22:21.460Z,15.10
2019-02-09T10:24:52.860Z,15.20
2019-02-09T10:27:24.042Z,15.20
2019-02-09T10:29:55.343Z,15.10
2019-02-09T10:32:26.586Z,15.00
2019-02-09T10:34:57.920Z,15.00
2019-02-09T10:37:30.452Z,15.20
2019-02-09T10:40:01.744Z,15.30
2019-02-09T10:42:33.076Z,15.10
2019-02-09T10:45:04.683Z,14.90
2019-02-09T10:47:36.649Z,15.00
2019-02-09T10:50:10.105Z,15.10
2019-02-09T10:52:41.347Z,15.30
2019-02-09T10:55:12.609Z,15.50
2019-02-09T10:57:44.027Z,15.50
2019-02-09T11:00:19.337Z,15.50
2019-02-09T11:02:52.143Z,15.30
2019-02-09T11:05:23.858Z,15.30
2019-02-09T11:07:55.564Z,15.60
2019-02-09T11:10:27.483Z,15.40
2019-02-09T11:12:58.512Z,15.20
2019-02-09T11:15:33.170Z,15.20
2019-02-09T11:18:05.058Z,15.20
2019-02-09T11:20:36.167Z,15.40
2019-02-09T11:23:07.188Z,15.70
2019-02-09T11:25:38.020Z,15.90
2019-02-09T11:28:09.682Z,15.80
2019-02-09T11:30:44.826Z,15.70
2019-02-09T11:33:16.192Z,15.70
2019-02-09T11:35:47.708Z,15.60
2019-02-09T11:38:19.072Z,15.80
2019-02-09T11:40:51.244Z,15.70
2019-02-09T11:43:22.482Z,15.80
2019-02-09T11:45:56.080Z,15.90
2019-02-09T11:48:32.023Z,15.80
2019-02-09T11:51:03.659Z,16.00
2019-02-09T11:53:34.866Z,15.80
2019-02-09T11:56:06.631Z,15.80
2019-02-09T11:58:37.579Z,16.00
2019-02-09T12:01:08.738Z,15.90
2019-02-09T12:03:40.148Z,15.90
2019-02-09T12:06:11.462Z,15.90
2019-02-09T12:08:42.555Z,16.00
2019-02-09T12:11:13.867Z,16.10
2019-02-09T12:13:44.966Z,16.10
2019-02-09T12:16:16.308Z,16.20
2019-02-09T12:18:49.369Z,16.10
2019-02-09T12:21:20.864Z,16.20
2019-02-09T12:23:52.128Z,16.30
2019-02-09T12:26:23.344Z,16.30
2019-02-09T12:28:55.021Z,16.20
2019-02-09T12:31:26.420Z,16.20
2019-02-09T12:33:58.109Z,16.20
2019-02-09T12:36:29.235Z,16.10
2019-02-09T12:39:00.634Z,16.00
2019-02-09T12:41:31.866Z,16.10
2019-02-09T12:44:03.465Z,16.00
2019-02-09T12:46:34.912Z,16.10
2019-02-09T12:49:06.688Z,16.10
2019-02-09T12:51:37.999Z,16.00
2019-02-09T12:54:09.348Z,16.00
2019-02-09T12:56:40.569Z,16.00
2019-02-09T12:59:14.990Z,16.10
2019-02-09T13:01:44.563Z,15.90
2019-02-09T13:04:15.905Z,15.90
2019-02-09T13:06:47.528Z,15.90
2019-02-09T13:09:18.874Z,16.00
2019-02-09T13:11:50.249Z,16.00
2019-02-09T13:14:21.406Z,16.10
2019-02-09T13:16:52.685Z,16.20
2019-02-09T13:19:23.816Z,16.20
2019-02-09T13:21:55.701Z,16.00
2019-02-09T13:24:27.110Z,16.00
2019-02-09T13:27:01.663Z,16.20
2019-02-09T13:29:32.890Z,16.10
2019-02-09T13:32:04.657Z,16.20
2019-02-09T13:34:36.917Z,16.20
2019-02-09T13:37:08.216Z,16.20
2019-02-09T13:39:38.994Z,16.30
2019-02-09T13:42:10.375Z,16.20
2019-02-09T13:44:41.517Z,16.00
2019-02-09T13:47:12.680Z,16.10
2019-02-09T13:49:43.997Z,16.10
2019-02-09T13:52:15.400Z,16.00
2019-02-09T13:54:46.666Z,16.30
2019-02-09T13:57:17.866Z,17.70
2019-02-09T13:59:49.833Z,18.80
2019-02-09T14:02:20.977Z,19.90
2019-02-09T14:04:51.995Z,20.60
2019-02-09T14:07:23.325Z,19.60
2019-02-09T14:09:54.555Z,18.80
2019-02-09T14:12:25.732Z,18.60
2019-02-09T14:14:57.022Z,17.90
2019-02-09T14:17:28.032Z,18.40
2019-02-09T14:19:59.167Z,18.80
2019-02-09T14:22:30.382Z,19.00
2019-02-09T14:25:06.678Z,19.00
2019-02-09T14:27:38.052Z,18.80
2019-02-09T14:30:12.555Z,18.10
2019-02-09T14:32:47.486Z,18.00
2019-02-09T14:35:19.079Z,17.90
2019-02-09T14:37:50.803Z,17.40
2019-02-09T14:40:23.687Z,17.20
2019-02-09T14:42:55.094Z,16.80
2019-02-09T14:45:32.100Z,16.60
2019-02-09T14:48:03.457Z,16.80
2019-02-09T14:50:34.549Z,16.60
2019-02-09T14:53:07.491Z,16.60
2019-02-09T14:55:38.464Z,16.60
2019-02-09T14:58:10.292Z,16.70
2019-02-09T15:00:43.420Z,16.70
2019-02-09T15:03:15.151Z,16.60
2019-02-09T15:05:46.249Z,16.60
2019-02-09T15:08:22.806Z,16.50
2019-02-09T15:10:53.917Z,16.40
2019-02-09T15:13:25.532Z,16.40
2019-02-09T15:16:08.025Z,16.50
2019-02-09T15:18:38.947Z,16.50
2019-02-09T15:21:10.094Z,16.30
2019-02-09T15:23:40.838Z,16.30
2019-02-09T15:26:12.740Z,16.30
2019-02-09T15:28:43.573Z,16.20
2019-02-09T15:31:14.763Z,16.20
2019-02-09T15:33:46.036Z,16.20
2019-02-09T15:36:17.101Z,16.00
2019-02-09T15:38:48.238Z,16.00
2019-02-09T15:41:19.357Z,16.00
2019-02-09T15:43:50.591Z,15.90
2019-02-09T15:47:03.427Z,15.90
2019-02-09T15:49:39.660Z,16.00
2019-02-09T15:52:11.004Z,16.10
2019-02-09T15:54:41.718Z,16.00
2019-02-09T15:57:12.913Z,15.90
2019-02-09T15:59:43.742Z,15.80
2019-02-09T16:02:14.875Z,15.80
2019-02-09T16:04:45.710Z,15.80
2019-02-09T16:07:16.834Z,15.70
2019-02-09T16:09:47.862Z,15.60
2019-02-09T16:12:22.198Z,15.50
2019-02-09T16:14:54.314Z,15.40
2019-02-09T16:17:25.485Z,15.30
2019-02-09T16:19:56.767Z,15.40
2019-02-09T16:22:28.011Z,15.40
2019-02-09T16:24:59.193Z,15.20
2019-02-09T16:27:30.497Z,15.00
2019-02-09T16:30:40.022Z,15.00
2019-02-09T16:33:11.224Z,15.10
2019-02-09T16:35:42.083Z,15.10
2019-02-09T16:38:16.139Z,14.80
2019-02-09T16:40:47.041Z,14.60
2019-02-09T16:43:18.326Z,14.60
2019-02-09T16:45:49.462Z,14.70
2019-02-09T16:48:20.707Z,14.70
2019-02-09T16:50:51.742Z,14.50
2019-02-09T16:53:28.707Z,14.40
2019-02-09T16:55:59.966Z,14.60
2019-02-09T16:58:30.979Z,14.60
2019-02-09T17:01:02.363Z,14.60
2019-02-09T17:03:33.530Z,14.60
2019-02-09T17:06:04.791Z,14.50
2019-02-09T17:08:36.008Z,14.40
2019-02-09T17:11:07.367Z,14.20
2019-02-09T17:13:38.224Z,14.10
2019-02-09T17:16:09.394Z,13.90
2019-02-09T17:18:40.026Z,13.90
2019-02-09T17:21:11.135Z,14.10
2019-02-09T17:23:42.568Z,14.10
2019-02-09T17:26:15.142Z,14.10
2019-02-09T17:28:46.267Z,14.00
2019-02-09T17:31:17.425Z,14.10
2019-02-09T17:33:48.679Z,14.00
2019-02-09T17:36:24.111Z,14.00
2019-02-09T17:38:55.565Z,13.90
2019-02-09T17:41:26.991Z,13.80
2019-02-09T17:43:58.201Z,13.80
2019-02-09T17:46:29.516Z,13.80
2019-02-09T17:49:00.833Z,13.90
2019-02-09T17:51:32.378Z,13.80
2019-02-09T17:54:03.725Z,13.70
2019-02-09T17:56:41.101Z,13.70
2019-02-09T17:59:12.615Z,13.70
2019-02-09T18:01:43.871Z,13.70
2019-02-09T18:04:15.213Z,13.60
2019-02-09T18:06:46.770Z,13.70
2019-02-09T18:09:20.722Z,13.70
2019-02-09T18:11:52.710Z,13.70
2019-02-09T18:14:24.496Z,13.70
2019-02-09T18:16:57.144Z,13.70
2019-02-09T18:19:31.104Z,13.80
2019-02-09T18:22:04.065Z,13.60
2019-02-09T18:24:35.298Z,13.60
2019-02-09T18:27:07.448Z,13.70
2019-02-09T18:29:38.456Z,13.60
2019-02-09T18:32:10.037Z,13.60
2019-02-09T18:34:40.904Z,13.50
2019-02-09T18:37:12.475Z,13.40
2019-02-09T18:39:45.319Z,13.40
2019-02-09T18:42:17.372Z,13.40
2019-02-09T18:44:48.224Z,13.50
2019-02-09T18:47:20.008Z,13.50
2019-02-09T18:49:51.684Z,13.50
2019-02-09T18:52:23.639Z,13.60
2019-02-09T18:54:55.775Z,13.60
2019-02-09T18:57:28.690Z,13.60
2019-02-09T19:00:00.278Z,13.50
2019-02-09T19:02:38.326Z,13.40
2019-02-09T19:05:07.134Z,13.30
2019-02-09T19:07:42.607Z,13.30
2019-02-09T19:10:19.639Z,13.30
2019-02-09T19:12:51.314Z,13.30
2019-02-09T19:15:23.085Z,13.30
2019-02-09T19:17:54.803Z,13.30
2019-02-09T19:20:34.748Z,13.30
2019-02-09T19:23:06.636Z,13.30
2019-02-09T19:25:37.940Z,13.30
2019-02-09T19:28:09.668Z,13.30
2019-02-09T19:30:49.955Z,13.50
2019-02-09T19:33:25.489Z,13.50
2019-02-09T19:35:57.822Z,13.40
2019-02-09T19:38:29.859Z,13.30
2019-02-09T19:41:01.211Z,13.20
2019-02-09T19:43:33.574Z,13.20
2019-02-09T19:46:06.234Z,13.10
2019-02-09T19:48:40.033Z,13.10
2019-02-09T19:51:11.697Z,13.10
2019-02-09T19:53:42.982Z,13.10
2019-02-09T19:56:15.433Z,13.10
2019-02-09T19:58:46.463Z,13.20
2019-02-09T20:01:19.646Z,13.30
2019-02-09T20:03:57.874Z,13.30
2019-02-09T20:06:31.020Z,13.30
2019-02-09T20:09:03.015Z,13.30
2019-02-09T20:11:34.392Z,13.10
2019-02-09T20:14:05.924Z,13.10
2019-02-09T20:16:37.992Z,13.00
2019-02-09T20:19:09.613Z,13.10
2019-02-09T20:21:41.592Z,13.10
2019-02-09T20:24:12.969Z,13.20
2019-02-09T20:26:44.031Z,13.20
2019-02-09T20:29:15.549Z,13.10
2019-02-09T20:31:46.859Z,13.10
2019-02-09T20:34:18.478Z,11.60
2019-02-09T20:36:49.986Z,13.10
2019-02-09T20:39:26.662Z,13.10
2019-02-09T20:41:59.580Z,13.00
2019-02-09T20:44:32.009Z,13.00
2019-02-09T20:47:09.653Z,13.00
2019-02-09T20:49:40.439Z,12.90
2019-02-09T20:52:11.766Z,12.90
2019-02-09T20:54:43.225Z,13.00
2019-02-09T20:57:14.658Z,13.00
2019-02-09T20:59:48.124Z,13.00
2019-02-09T21:02:19.416Z,12.90
2019-02-09T21:04:50.794Z,12.90
2019-02-09T21:07:24.456Z,12.90
2019-02-09T21:09:55.399Z,12.90
2019-02-09T21:12:26.912Z,12.90
2019-02-09T21:14:58.370Z,12.90
2019-02-09T21:17:29.795Z,13.10
2019-02-09T21:20:01.059Z,13.00
2019-02-09T21:22:32.513Z,13.00
2019-02-09T21:25:05.511Z,13.00
2019-02-09T21:27:36.802Z,13.00
2019-02-09T21:30:08.430Z,13.00
2019-02-09T21:32:40.453Z,13.00
2019-02-09T21:35:12.798Z,13.00
2019-02-09T21:37:44.149Z,13.10
2019-02-09T21:40:18.236Z,13.00
2019-02-09T21:42:49.641Z,13.00
2019-02-09T21:45:21.481Z,13.00
2019-02-09T21:47:52.750Z,13.20
2019-02-09T21:50:41.477Z,13.20
2019-02-09T21:53:13.508Z,13.20
2019-02-09T21:55:44.833Z,13.10
2019-02-09T21:58:16.189Z,13.00
2019-02-09T22:00:47.101Z,13.00
2019-02-09T22:03:18.235Z,13.00
2019-02-09T22:05:52.753Z,12.90
2019-02-09T22:08:24.076Z,12.90
2019-02-09T22:10:55.222Z,12.90
2019-02-09T22:13:26.717Z,13.00
2019-02-09T22:15:57.982Z,12.90
2019-02-09T22:18:29.299Z,12.90
2019-02-09T22:21:00.602Z,12.90
2019-02-09T22:23:31.557Z,12.90
2019-02-09T22:26:02.915Z,12.90
2019-02-09T22:28:34.357Z,12.90
2019-02-09T22:31:05.588Z,12.80
2019-02-09T22:33:37.300Z,12.80
2019-02-09T22:36:08.681Z,12.80
2019-02-09T22:38:40.770Z,12.80
2019-02-09T22:41:15.045Z,12.80
2019-02-09T22:43:46.295Z,12.80
2019-02-09T22:46:17.730Z,12.80
2019-02-09T22:48:48.572Z,12.80
2019-02-09T22:51:22.818Z,12.70
2019-02-09T22:53:55.850Z,12.70
2019-02-09T22:56:27.231Z,12.70
2019-02-09T22:58:59.264Z,12.70
2019-02-09T23:01:44.121Z,12.80
2019-02-09T23:04:49.653Z,12.80
2019-02-09T23:07:24.138Z,12.80
2019-02-09T23:09:55.455Z,12.80
2019-02-09T23:12:27.120Z,12.90
2019-02-09T23:14:58.649Z,12.80
2019-02-09T23:17:29.989Z,12.80
2019-02-09T23:20:01.304Z,12.70
2019-02-09T23:22:32.645Z,12.60
2019-02-09T23:25:04.170Z,12.80
2019-02-09T23:27:35.495Z,12.80
2019-02-09T23:30:09.154Z,12.70
2019-02-09T23:32:39.931Z,12.60
2019-02-09T23:35:13.843Z,12.60
2019-02-09T23:37:45.450Z,12.60
2019-02-09T23:40:16.685Z,12.70
2019-02-09T23:42:51.748Z,12.80
2019-02-09T23:45:23.274Z,12.90
2019-02-09T23:47:54.601Z,12.90
2019-02-09T23:50:25.795Z,13.00
2019-02-09T23:52:57.069Z,13.00
2019-02-09T23:55:28.218Z,13.00
2019-02-09T23:58:00.571Z,12.90
